sensor_id;sensor_type;location;lat;lon;timestamp;temperature;humidity
43651;DHT22;29247;50.944;5.382;2023-01-10T00:01:38;8.00;86.20
43651;DHT22;29247;50.944;5.382;2023-01-10T00:04:07;8.00;86.00
43651;DHT22;29247;50.944;5.382;2023-01-10T00:06:32;8.00;85.90
43651;DHT22;29247;50.944;5.382;2023-01-10T00:09:00;7.90;85.90
43651;DHT22;29247;50.944;5.382;2023-01-10T00:11:28;7.90;85.80
43651;DHT22;29247;50.944;5.382;2023-01-10T00:14:12;7.90;85.70
43651;DHT22;29247;50.944;5.382;2023-01-10T00:16:41;7.80;85.60
43651;DHT22;29247;50.944;5.382;2023-01-10T00:19:08;7.80;85.60
43651;DHT22;29247;50.944;5.382;2023-01-10T00:21:37;7.80;85.60
43651;DHT22;29247;50.944;5.382;2023-01-10T00:24:04;7.80;85.60
43651;DHT22;29247;50.944;5.382;2023-01-10T00:26:44;7.80;86.10
43651;DHT22;29247;50.944;5.382;2023-01-10T00:29:12;7.80;85.80
43651;DHT22;29247;50.944;5.382;2023-01-10T00:31:38;7.70;85.60
43651;DHT22;29247;50.944;5.382;2023-01-10T00:34:10;7.70;85.60
43651;DHT22;29247;50.944;5.382;2023-01-10T00:36:39;7.70;85.70
43651;DHT22;29247;50.944;5.382;2023-01-10T00:39:08;7.70;85.80
43651;DHT22;29247;50.944;5.382;2023-01-10T00:41:35;7.70;86.00
43651;DHT22;29247;50.944;5.382;2023-01-10T00:44:22;7.70;86.00
43651;DHT22;29247;50.944;5.382;2023-01-10T00:46:48;7.70;86.10
43651;DHT22;29247;50.944;5.382;2023-01-10T00:49:16;7.70;86.10
43651;DHT22;29247;50.944;5.382;2023-01-10T00:51:43;7.70;86.00
43651;DHT22;29247;50.944;5.382;2023-01-10T00:54:10;7.70;85.90
43651;DHT22;29247;50.944;5.382;2023-01-10T00:56:36;7.70;85.80
43651;DHT22;29247;50.944;5.382;2023-01-10T00:59:04;7.60;85.70
43651;DHT22;29247;50.944;5.382;2023-01-10T01:01:33;7.60;85.60
43651;DHT22;29247;50.944;5.382;2023-01-10T01:03:58;7.60;85.60
43651;DHT22;29247;50.944;5.382;2023-01-10T01:06:27;7.60;85.70
43651;DHT22;29247;50.944;5.382;2023-01-10T01:08:52;7.60;85.80
43651;DHT22;29247;50.944;5.382;2023-01-10T01:11:18;7.70;86.00
43651;DHT22;29247;50.944;5.382;2023-01-10T01:13:46;7.60;86.00
43651;DHT22;29247;50.944;5.382;2023-01-10T01:16:12;7.60;86.00
43651;DHT22;29247;50.944;5.382;2023-01-10T01:18:38;7.70;85.90
43651;DHT22;29247;50.944;5.382;2023-01-10T01:21:06;7.70;85.80
43651;DHT22;29247;50.944;5.382;2023-01-10T01:23:35;7.60;85.70
43651;DHT22;29247;50.944;5.382;2023-01-10T01:26:01;7.60;85.60
43651;DHT22;29247;50.944;5.382;2023-01-10T01:28:29;7.60;85.50
43651;DHT22;29247;50.944;5.382;2023-01-10T01:30:55;7.60;85.40
43651;DHT22;29247;50.944;5.382;2023-01-10T01:33:20;7.60;85.20
43651;DHT22;29247;50.944;5.382;2023-01-10T01:35:48;7.60;85.20
43651;DHT22;29247;50.944;5.382;2023-01-10T01:38:14;7.50;85.20
43651;DHT22;29247;50.944;5.382;2023-01-10T01:40:43;7.50;85.30
43651;DHT22;29247;50.944;5.382;2023-01-10T01:43:24;7.60;85.50
43651;DHT22;29247;50.944;5.382;2023-01-10T01:45:54;7.50;85.40
43651;DHT22;29247;50.944;5.382;2023-01-10T01:48:35;7.50;85.30
43651;DHT22;29247;50.944;5.382;2023-01-10T01:51:17;7.50;85.20
43651;DHT22;29247;50.944;5.382;2023-01-10T01:54:02;7.50;85.20
43651;DHT22;29247;50.944;5.382;2023-01-10T01:56:37;7.50;85.10
43651;DHT22;29247;50.944;5.382;2023-01-10T01:59:18;7.50;85.10
43651;DHT22;29247;50.944;5.382;2023-01-10T02:01:48;7.50;85.00
43651;DHT22;29247;50.944;5.382;2023-01-10T02:04:22;7.40;84.90
43651;DHT22;29247;50.944;5.382;2023-01-10T02:06:51;7.40;84.90
43651;DHT22;29247;50.944;5.382;2023-01-10T02:09:26;7.40;84.90
43651;DHT22;29247;50.944;5.382;2023-01-10T02:12:01;7.30;84.80
43651;DHT22;29247;50.944;5.382;2023-01-10T02:14:27;7.30;84.90
43651;DHT22;29247;50.944;5.382;2023-01-10T02:16:54;7.30;85.00
43651;DHT22;29247;50.944;5.382;2023-01-10T02:19:23;7.30;85.10
43651;DHT22;29247;50.944;5.382;2023-01-10T02:22:35;7.20;85.10
43651;DHT22;29247;50.944;5.382;2023-01-10T02:33:37;7.20;85.40
43651;DHT22;29247;50.944;5.382;2023-01-10T02:38:57;7.10;85.40
43651;DHT22;29247;50.944;5.382;2023-01-10T02:41:47;7.10;85.50
43651;DHT22;29247;50.944;5.382;2023-01-10T02:44:44;7.10;85.50
43651;DHT22;29247;50.944;5.382;2023-01-10T02:47:12;7.10;85.50
43651;DHT22;29247;50.944;5.382;2023-01-10T02:49:50;7.10;85.40
43651;DHT22;29247;50.944;5.382;2023-01-10T02:52:27;7.00;85.40
43651;DHT22;29247;50.944;5.382;2023-01-10T02:55:04;7.00;85.50
43651;DHT22;29247;50.944;5.382;2023-01-10T02:57:49;7.00;85.50
43651;DHT22;29247;50.944;5.382;2023-01-10T03:03:15;7.00;85.60
43651;DHT22;29247;50.944;5.382;2023-01-10T03:08:39;7.00;85.80
43651;DHT22;29247;50.944;5.382;2023-01-10T03:11:08;6.90;85.80
43651;DHT22;29247;50.944;5.382;2023-01-10T03:13:49;6.90;85.60
43651;DHT22;29247;50.944;5.382;2023-01-10T03:16:19;6.90;85.70
43651;DHT22;29247;50.944;5.382;2023-01-10T03:18:59;6.90;85.80
43651;DHT22;29247;50.944;5.382;2023-01-10T03:21:30;6.90;85.90
43651;DHT22;29247;50.944;5.382;2023-01-10T03:24:04;6.90;86.00
43651;DHT22;29247;50.944;5.382;2023-01-10T03:26:48;6.90;86.20
43651;DHT22;29247;50.944;5.382;2023-01-10T03:29:28;6.90;86.30
43651;DHT22;29247;50.944;5.382;2023-01-10T03:32:03;6.90;86.50
43651;DHT22;29247;50.944;5.382;2023-01-10T03:34:35;6.90;86.50
43651;DHT22;29247;50.944;5.382;2023-01-10T03:37:16;7.00;86.70
43651;DHT22;29247;50.944;5.382;2023-01-10T03:42:49;7.00;86.90
43651;DHT22;29247;50.944;5.382;2023-01-10T03:45:50;7.00;86.90
43651;DHT22;29247;50.944;5.382;2023-01-10T03:48:28;7.10;87.00
43651;DHT22;29247;50.944;5.382;2023-01-10T03:50:58;7.10;87.00
43651;DHT22;29247;50.944;5.382;2023-01-10T03:53:25;7.10;87.10
43651;DHT22;29247;50.944;5.382;2023-01-10T03:55:51;7.10;87.10
43651;DHT22;29247;50.944;5.382;2023-01-10T03:58:19;7.20;87.20
43651;DHT22;29247;50.944;5.382;2023-01-10T04:00:51;7.20;87.20
43651;DHT22;29247;50.944;5.382;2023-01-10T04:03:19;7.20;87.20
43651;DHT22;29247;50.944;5.382;2023-01-10T04:05:45;7.30;87.30
43651;DHT22;29247;50.944;5.382;2023-01-10T04:08:11;7.30;87.20
43651;DHT22;29247;50.944;5.382;2023-01-10T04:10:36;7.30;87.10
43651;DHT22;29247;50.944;5.382;2023-01-10T04:13:03;7.30;87.00
43651;DHT22;29247;50.944;5.382;2023-01-10T04:15:29;7.30;86.80
43651;DHT22;29247;50.944;5.382;2023-01-10T04:17:57;7.30;86.70
43651;DHT22;29247;50.944;5.382;2023-01-10T04:20:23;7.30;86.50
43651;DHT22;29247;50.944;5.382;2023-01-10T04:22:52;7.30;86.50
43651;DHT22;29247;50.944;5.382;2023-01-10T04:25:22;7.30;86.40
43651;DHT22;29247;50.944;5.382;2023-01-10T04:27:51;7.30;86.40
43651;DHT22;29247;50.944;5.382;2023-01-10T04:30:18;7.30;86.40
43651;DHT22;29247;50.944;5.382;2023-01-10T04:32:46;7.30;86.40
43651;DHT22;29247;50.944;5.382;2023-01-10T04:35:17;7.30;86.40
43651;DHT22;29247;50.944;5.382;2023-01-10T04:37:45;7.30;86.50
43651;DHT22;29247;50.944;5.382;2023-01-10T04:40:16;7.30;86.50
43651;DHT22;29247;50.944;5.382;2023-01-10T04:42:44;7.30;86.50
43651;DHT22;29247;50.944;5.382;2023-01-10T04:45:10;7.40;86.60
43651;DHT22;29247;50.944;5.382;2023-01-10T04:47:37;7.40;86.50
43651;DHT22;29247;50.944;5.382;2023-01-10T04:50:06;7.40;86.50
43651;DHT22;29247;50.944;5.382;2023-01-10T04:52:32;7.40;86.50
43651;DHT22;29247;50.944;5.382;2023-01-10T04:54:58;7.40;86.60
43651;DHT22;29247;50.944;5.382;2023-01-10T04:57:26;7.40;86.60
43651;DHT22;29247;50.944;5.382;2023-01-10T04:59:55;7.40;86.50
43651;DHT22;29247;50.944;5.382;2023-01-10T05:02:20;7.40;86.40
43651;DHT22;29247;50.944;5.382;2023-01-10T05:04:46;7.40;86.40
43651;DHT22;29247;50.944;5.382;2023-01-10T05:07:15;7.40;86.30
43651;DHT22;29247;50.944;5.382;2023-01-10T05:09:40;7.40;86.30
43651;DHT22;29247;50.944;5.382;2023-01-10T05:12:07;7.50;86.40
43651;DHT22;29247;50.944;5.382;2023-01-10T05:14:35;7.50;86.40
43651;DHT22;29247;50.944;5.382;2023-01-10T05:17:01;7.50;86.40
43651;DHT22;29247;50.944;5.382;2023-01-10T05:19:26;7.50;86.40
43651;DHT22;29247;50.944;5.382;2023-01-10T05:21:52;7.50;86.30
43651;DHT22;29247;50.944;5.382;2023-01-10T05:24:23;7.50;86.30
43651;DHT22;29247;50.944;5.382;2023-01-10T05:26:49;7.50;86.20
43651;DHT22;29247;50.944;5.382;2023-01-10T05:29:17;7.50;86.20
43651;DHT22;29247;50.944;5.382;2023-01-10T05:31:48;7.50;86.10
43651;DHT22;29247;50.944;5.382;2023-01-10T05:34:17;7.60;86.20
43651;DHT22;29247;50.944;5.382;2023-01-10T05:36:43;7.60;86.10
43651;DHT22;29247;50.944;5.382;2023-01-10T05:39:11;7.60;86.10
43651;DHT22;29247;50.944;5.382;2023-01-10T05:41:39;7.60;86.10
43651;DHT22;29247;50.944;5.382;2023-01-10T05:44:08;7.60;86.00
43651;DHT22;29247;50.944;5.382;2023-01-10T05:46:36;7.60;85.80
43651;DHT22;29247;50.944;5.382;2023-01-10T05:49:02;7.60;85.90
43651;DHT22;29247;50.944;5.382;2023-01-10T05:51:30;7.60;85.80
43651;DHT22;29247;50.944;5.382;2023-01-10T05:53:56;7.50;85.70
43651;DHT22;29247;50.944;5.382;2023-01-10T05:56:23;7.50;85.70
43651;DHT22;29247;50.944;5.382;2023-01-10T05:58:52;7.50;85.50
43651;DHT22;29247;50.944;5.382;2023-01-10T06:01:17;7.50;85.30
43651;DHT22;29247;50.944;5.382;2023-01-10T06:03:46;7.50;85.20
43651;DHT22;29247;50.944;5.382;2023-01-10T06:06:12;7.40;85.00
43651;DHT22;29247;50.944;5.382;2023-01-10T06:08:38;7.40;85.00
43651;DHT22;29247;50.944;5.382;2023-01-10T06:11:05;7.40;85.00
43651;DHT22;29247;50.944;5.382;2023-01-10T06:13:35;7.30;84.90
43651;DHT22;29247;50.944;5.382;2023-01-10T06:16:03;7.30;84.90
43651;DHT22;29247;50.944;5.382;2023-01-10T06:18:29;7.30;84.90
43651;DHT22;29247;50.944;5.382;2023-01-10T06:20:55;7.30;84.90
43651;DHT22;29247;50.944;5.382;2023-01-10T06:23:20;7.20;84.90
43651;DHT22;29247;50.944;5.382;2023-01-10T06:25:48;7.20;84.90
43651;DHT22;29247;50.944;5.382;2023-01-10T06:28:19;7.20;85.00
43651;DHT22;29247;50.944;5.382;2023-01-10T06:30:45;7.20;85.10
43651;DHT22;29247;50.944;5.382;2023-01-10T06:33:11;7.20;85.20
43651;DHT22;29247;50.944;5.382;2023-01-10T06:35:39;7.20;85.40
43651;DHT22;29247;50.944;5.382;2023-01-10T06:38:08;7.20;85.40
43651;DHT22;29247;50.944;5.382;2023-01-10T06:40:36;7.10;85.40
43651;DHT22;29247;50.944;5.382;2023-01-10T06:43:01;7.10;85.40
43651;DHT22;29247;50.944;5.382;2023-01-10T06:45:32;7.10;85.40
43651;DHT22;29247;50.944;5.382;2023-01-10T06:48:03;7.10;85.40
43651;DHT22;29247;50.944;5.382;2023-01-10T06:50:29;7.10;85.50
43651;DHT22;29247;50.944;5.382;2023-01-10T06:53:01;7.10;85.50
43651;DHT22;29247;50.944;5.382;2023-01-10T06:55:28;7.00;85.40
43651;DHT22;29247;50.944;5.382;2023-01-10T06:58:00;7.00;85.40
43651;DHT22;29247;50.944;5.382;2023-01-10T07:00:27;7.00;85.40
43651;DHT22;29247;50.944;5.382;2023-01-10T07:02:59;7.00;85.40
43651;DHT22;29247;50.944;5.382;2023-01-10T07:05:29;7.00;85.50
43651;DHT22;29247;50.944;5.382;2023-01-10T07:08:04;6.90;85.60
43651;DHT22;29247;50.944;5.382;2023-01-10T07:12:57;6.90;85.60
43651;DHT22;29247;50.944;5.382;2023-01-10T07:15:27;6.90;85.60
43651;DHT22;29247;50.944;5.382;2023-01-10T07:17:55;6.90;85.70
43651;DHT22;29247;50.944;5.382;2023-01-10T07:20:24;6.90;85.70
43651;DHT22;29247;50.944;5.382;2023-01-10T07:22:54;6.90;85.80
43651;DHT22;29247;50.944;5.382;2023-01-10T07:25:22;6.80;85.70
43651;DHT22;29247;50.944;5.382;2023-01-10T07:27:50;6.80;85.70
43651;DHT22;29247;50.944;5.382;2023-01-10T07:30:17;6.80;85.60
43651;DHT22;29247;50.944;5.382;2023-01-10T07:32:45;6.80;85.60
43651;DHT22;29247;50.944;5.382;2023-01-10T07:35:10;6.80;85.60
43651;DHT22;29247;50.944;5.382;2023-01-10T07:37:36;6.80;85.70
43651;DHT22;29247;50.944;5.382;2023-01-10T07:40:04;6.80;85.80
43651;DHT22;29247;50.944;5.382;2023-01-10T07:42:30;6.80;85.80
43651;DHT22;29247;50.944;5.382;2023-01-10T07:44:56;6.80;85.80
43651;DHT22;29247;50.944;5.382;2023-01-10T07:47:21;6.70;85.80
43651;DHT22;29247;50.944;5.382;2023-01-10T07:49:49;6.70;85.80
43651;DHT22;29247;50.944;5.382;2023-01-10T07:52:17;6.70;85.90
43651;DHT22;29247;50.944;5.382;2023-01-10T07:54:45;6.70;85.80
43651;DHT22;29247;50.944;5.382;2023-01-10T07:57:11;6.70;85.90
43651;DHT22;29247;50.944;5.382;2023-01-10T07:59:39;6.70;85.90
43651;DHT22;29247;50.944;5.382;2023-01-10T08:02:05;6.70;85.90
43651;DHT22;29247;50.944;5.382;2023-01-10T08:04:30;6.70;85.90
43651;DHT22;29247;50.944;5.382;2023-01-10T08:06:58;6.70;85.90
43651;DHT22;29247;50.944;5.382;2023-01-10T08:09:24;6.70;85.90
43651;DHT22;29247;50.944;5.382;2023-01-10T08:11:52;6.70;86.00
43651;DHT22;29247;50.944;5.382;2023-01-10T08:14:20;6.70;86.10
43651;DHT22;29247;50.944;5.382;2023-01-10T08:16:46;6.70;86.10
43651;DHT22;29247;50.944;5.382;2023-01-10T08:19:11;6.70;86.20
43651;DHT22;29247;50.944;5.382;2023-01-10T08:21:41;6.70;86.30
43651;DHT22;29247;50.944;5.382;2023-01-10T08:24:07;6.70;86.30
43651;DHT22;29247;50.944;5.382;2023-01-10T08:26:35;6.70;87.10
43651;DHT22;29247;50.944;5.382;2023-01-10T08:29:01;6.80;86.50
43651;DHT22;29247;50.944;5.382;2023-01-10T08:31:27;6.80;86.60
43651;DHT22;29247;50.944;5.382;2023-01-10T08:33:58;6.80;86.50
43651;DHT22;29247;50.944;5.382;2023-01-10T08:36:28;6.80;86.60
43651;DHT22;29247;50.944;5.382;2023-01-10T08:38:54;6.80;86.60
43651;DHT22;29247;50.944;5.382;2023-01-10T08:41:20;6.90;86.60
43651;DHT22;29247;50.944;5.382;2023-01-10T08:43:49;6.90;86.70
43651;DHT22;29247;50.944;5.382;2023-01-10T08:46:20;6.90;86.70
43651;DHT22;29247;50.944;5.382;2023-01-10T08:48:45;7.00;86.80
43651;DHT22;29247;50.944;5.382;2023-01-10T08:51:12;7.00;86.70
43651;DHT22;29247;50.944;5.382;2023-01-10T08:53:40;7.10;86.80
43651;DHT22;29247;50.944;5.382;2023-01-10T08:56:11;7.10;86.70
43651;DHT22;29247;50.944;5.382;2023-01-10T08:58:37;7.10;86.70
43651;DHT22;29247;50.944;5.382;2023-01-10T09:01:09;7.20;86.70
43651;DHT22;29247;50.944;5.382;2023-01-10T09:03:36;7.20;86.70
43651;DHT22;29247;50.944;5.382;2023-01-10T09:06:05;7.30;86.70
43651;DHT22;29247;50.944;5.382;2023-01-10T09:08:34;7.40;86.80
43651;DHT22;29247;50.944;5.382;2023-01-10T09:11:04;7.40;86.70
43651;DHT22;29247;50.944;5.382;2023-01-10T09:13:30;7.40;86.70
43651;DHT22;29247;50.944;5.382;2023-01-10T09:15:56;7.50;86.70
43651;DHT22;29247;50.944;5.382;2023-01-10T09:18:22;7.60;86.70
43651;DHT22;29247;50.944;5.382;2023-01-10T09:20:49;7.60;86.70
43651;DHT22;29247;50.944;5.382;2023-01-10T09:23:19;7.70;86.50
43651;DHT22;29247;50.944;5.382;2023-01-10T09:25:47;7.70;86.40
43651;DHT22;29247;50.944;5.382;2023-01-10T09:28:16;7.80;86.40
43651;DHT22;29247;50.944;5.382;2023-01-10T09:30:45;7.80;86.30
43651;DHT22;29247;50.944;5.382;2023-01-10T09:33:11;7.90;86.20
43651;DHT22;29247;50.944;5.382;2023-01-10T09:35:40;7.90;86.10
43651;DHT22;29247;50.944;5.382;2023-01-10T09:38:12;7.90;85.90
43651;DHT22;29247;50.944;5.382;2023-01-10T09:41:07;8.00;85.80
43651;DHT22;29247;50.944;5.382;2023-01-10T09:46:38;8.10;85.50
43651;DHT22;29247;50.944;5.382;2023-01-10T09:52:34;8.10;85.50
43651;DHT22;29247;50.944;5.382;2023-01-10T09:55:25;8.20;85.40
43651;DHT22;29247;50.944;5.382;2023-01-10T09:57:54;8.20;85.40
43651;DHT22;29247;50.944;5.382;2023-01-10T10:00:34;8.20;85.20
43651;DHT22;29247;50.944;5.382;2023-01-10T10:03:16;8.30;85.20
43651;DHT22;29247;50.944;5.382;2023-01-10T10:05:43;8.30;85.10
43651;DHT22;29247;50.944;5.382;2023-01-10T10:08:16;8.40;85.10
43651;DHT22;29247;50.944;5.382;2023-01-10T10:11:09;8.40;85.10
43651;DHT22;29247;50.944;5.382;2023-01-10T10:13:59;8.40;85.00
43651;DHT22;29247;50.944;5.382;2023-01-10T10:19:26;8.50;84.60
43651;DHT22;29247;50.944;5.382;2023-01-10T10:27:34;8.60;84.50
43651;DHT22;29247;50.944;5.382;2023-01-10T10:33:09;8.70;84.50
43651;DHT22;29247;50.944;5.382;2023-01-10T10:36:03;8.70;84.50
43651;DHT22;29247;50.944;5.382;2023-01-10T10:38:37;8.70;84.40
43651;DHT22;29247;50.944;5.382;2023-01-10T10:44:14;8.80;84.30
43651;DHT22;29247;50.944;5.382;2023-01-10T10:46:42;8.80;84.20
43651;DHT22;29247;50.944;5.382;2023-01-10T10:49:41;8.80;84.10
43651;DHT22;29247;50.944;5.382;2023-01-10T10:52:21;8.90;84.20
43651;DHT22;29247;50.944;5.382;2023-01-10T10:54:48;8.90;83.90
43651;DHT22;29247;50.944;5.382;2023-01-10T10:57:16;9.00;83.80
43651;DHT22;29247;50.944;5.382;2023-01-10T10:59:45;8.90;83.70
43651;DHT22;29247;50.944;5.382;2023-01-10T11:02:27;9.00;83.70
43651;DHT22;29247;50.944;5.382;2023-01-10T11:05:05;9.00;83.70
43651;DHT22;29247;50.944;5.382;2023-01-10T11:07:39;9.10;83.70
43651;DHT22;29247;50.944;5.382;2023-01-10T11:10:20;9.10;83.60
43651;DHT22;29247;50.944;5.382;2023-01-10T11:15:49;9.10;83.40
43651;DHT22;29247;50.944;5.382;2023-01-10T11:18:20;9.20;83.50
43651;DHT22;29247;50.944;5.382;2023-01-10T11:20:56;9.20;83.50
43651;DHT22;29247;50.944;5.382;2023-01-10T11:26:03;9.30;83.40
43651;DHT22;29247;50.944;5.382;2023-01-10T11:28:32;9.30;83.20
43651;DHT22;29247;50.944;5.382;2023-01-10T11:30:59;9.40;83.20
43651;DHT22;29247;50.944;5.382;2023-01-10T11:33:29;9.40;82.90
43651;DHT22;29247;50.944;5.382;2023-01-10T11:36:05;9.40;82.90
43651;DHT22;29247;50.944;5.382;2023-01-10T11:38:37;9.40;82.90
43651;DHT22;29247;50.944;5.382;2023-01-10T11:43:46;9.40;82.80
43651;DHT22;29247;50.944;5.382;2023-01-10T11:46:18;9.40;83.40
43651;DHT22;29247;50.944;5.382;2023-01-10T11:48:52;9.40;82.70
43651;DHT22;29247;50.944;5.382;2023-01-10T11:51:32;9.40;82.60
43651;DHT22;29247;50.944;5.382;2023-01-10T11:54:05;9.50;82.60
43651;DHT22;29247;50.944;5.382;2023-01-10T11:56:34;9.50;82.40
43651;DHT22;29247;50.944;5.382;2023-01-10T11:59:15;9.50;82.40
43651;DHT22;29247;50.944;5.382;2023-01-10T12:04:27;9.50;82.20
43651;DHT22;29247;50.944;5.382;2023-01-10T12:06:58;9.50;82.20
43651;DHT22;29247;50.944;5.382;2023-01-10T12:09:36;9.50;82.10
43651;DHT22;29247;50.944;5.382;2023-01-10T12:12:34;9.50;82.10
43651;DHT22;29247;50.944;5.382;2023-01-10T12:17:50;9.60;82.10
43651;DHT22;29247;50.944;5.382;2023-01-10T12:20:22;9.60;82.10
43651;DHT22;29247;50.944;5.382;2023-01-10T12:22:53;9.60;82.00
43651;DHT22;29247;50.944;5.382;2023-01-10T12:25:40;9.60;81.90
43651;DHT22;29247;50.944;5.382;2023-01-10T12:28:16;9.60;81.90
43651;DHT22;29247;50.944;5.382;2023-01-10T12:30:42;9.60;81.80
43651;DHT22;29247;50.944;5.382;2023-01-10T12:33:35;9.60;81.60
43651;DHT22;29247;50.944;5.382;2023-01-10T12:38:58;9.60;81.40
43651;DHT22;29247;50.944;5.382;2023-01-10T12:44:38;9.60;81.20
43651;DHT22;29247;50.944;5.382;2023-01-10T12:50:12;9.60;81.00
43651;DHT22;29247;50.944;5.382;2023-01-10T12:52:50;9.60;81.00
43651;DHT22;29247;50.944;5.382;2023-01-10T12:55:19;9.70;80.90
43651;DHT22;29247;50.944;5.382;2023-01-10T12:58:02;9.70;80.80
43651;DHT22;29247;50.944;5.382;2023-01-10T13:00:33;9.60;80.70
43651;DHT22;29247;50.944;5.382;2023-01-10T13:03:03;9.70;80.60
43651;DHT22;29247;50.944;5.382;2023-01-10T13:05:31;9.70;80.70
43651;DHT22;29247;50.944;5.382;2023-01-10T13:08:15;9.70;80.60
43651;DHT22;29247;50.944;5.382;2023-01-10T13:10:47;9.70;80.60
43651;DHT22;29247;50.944;5.382;2023-01-10T13:16:35;9.70;80.50
43651;DHT22;29247;50.944;5.382;2023-01-10T13:21:40;9.70;80.10
43651;DHT22;29247;50.944;5.382;2023-01-10T13:24:25;9.70;80.00
43651;DHT22;29247;50.944;5.382;2023-01-10T13:29:21;9.70;80.00
43651;DHT22;29247;50.944;5.382;2023-01-10T13:31:47;9.70;80.10
43651;DHT22;29247;50.944;5.382;2023-01-10T13:34:15;9.70;80.20
43651;DHT22;29247;50.944;5.382;2023-01-10T13:39:26;9.60;80.50
43651;DHT22;29247;50.944;5.382;2023-01-10T13:52:53;9.60;81.50
43651;DHT22;29247;50.944;5.382;2023-01-10T14:03:47;9.50;82.20
43651;DHT22;29247;50.944;5.382;2023-01-10T14:09:45;9.40;82.60
43651;DHT22;29247;50.944;5.382;2023-01-10T14:12:02;9.40;82.80
43651;DHT22;29247;50.944;5.382;2023-01-10T14:14:40;9.40;82.90
43651;DHT22;29247;50.944;5.382;2023-01-10T14:19:59;9.30;83.20
43651;DHT22;29247;50.944;5.382;2023-01-10T14:22:31;9.30;83.20
43651;DHT22;29247;50.944;5.382;2023-01-10T14:25:02;9.30;83.30
43651;DHT22;29247;50.944;5.382;2023-01-10T14:27:53;9.30;83.40
43651;DHT22;29247;50.944;5.382;2023-01-10T14:30:32;9.20;83.50
43651;DHT22;29247;50.944;5.382;2023-01-10T14:33:02;9.20;83.60
43651;DHT22;29247;50.944;5.382;2023-01-10T14:35:37;9.20;83.60
43651;DHT22;29247;50.944;5.382;2023-01-10T14:38:12;9.20;83.70
43651;DHT22;29247;50.944;5.382;2023-01-10T14:40:47;9.20;84.00
43651;DHT22;29247;50.944;5.382;2023-01-10T14:43:17;9.20;84.20
43651;DHT22;29247;50.944;5.382;2023-01-10T14:46:13;9.10;84.30
43651;DHT22;29247;50.944;5.382;2023-01-10T14:48:49;9.10;84.60
43651;DHT22;29247;50.944;5.382;2023-01-10T14:51:31;9.10;84.60
43651;DHT22;29247;50.944;5.382;2023-01-10T14:54:02;9.10;84.90
43651;DHT22;29247;50.944;5.382;2023-01-10T14:56:35;9.10;84.90
43651;DHT22;29247;50.944;5.382;2023-01-10T14:59:23;9.10;85.00
43651;DHT22;29247;50.944;5.382;2023-01-10T15:02:19;9.00;85.20
43651;DHT22;29247;50.944;5.382;2023-01-10T15:04:55;9.00;85.20
43651;DHT22;29247;50.944;5.382;2023-01-10T15:07:22;9.00;85.30
43651;DHT22;29247;50.944;5.382;2023-01-10T15:09:55;9.00;85.40
43651;DHT22;29247;50.944;5.382;2023-01-10T15:12:24;9.00;85.60
43651;DHT22;29247;50.944;5.382;2023-01-10T15:15:12;9.00;85.70
43651;DHT22;29247;50.944;5.382;2023-01-10T15:17:44;9.00;85.70
43651;DHT22;29247;50.944;5.382;2023-01-10T15:20:17;9.00;85.90
43651;DHT22;29247;50.944;5.382;2023-01-10T15:22:57;9.00;85.90
43651;DHT22;29247;50.944;5.382;2023-01-10T15:25:37;8.90;86.00
43651;DHT22;29247;50.944;5.382;2023-01-10T15:28:05;8.90;86.10
43651;DHT22;29247;50.944;5.382;2023-01-10T15:30:39;8.90;86.20
43651;DHT22;29247;50.944;5.382;2023-01-10T15:33:11;9.00;86.30
43651;DHT22;29247;50.944;5.382;2023-01-10T15:35:40;8.90;86.40
43651;DHT22;29247;50.944;5.382;2023-01-10T15:38:21;8.90;86.40
43651;DHT22;29247;50.944;5.382;2023-01-10T15:41:02;8.90;86.60
43651;DHT22;29247;50.944;5.382;2023-01-10T15:43:34;8.90;86.70
43651;DHT22;29247;50.944;5.382;2023-01-10T15:46:23;8.90;86.70
43651;DHT22;29247;50.944;5.382;2023-01-10T15:48:59;8.90;86.80
43651;DHT22;29247;50.944;5.382;2023-01-10T15:51:32;8.90;86.90
43651;DHT22;29247;50.944;5.382;2023-01-10T15:54:09;8.90;87.00
43651;DHT22;29247;50.944;5.382;2023-01-10T15:56:55;8.80;87.20
43651;DHT22;29247;50.944;5.382;2023-01-10T15:59:31;8.80;87.20
43651;DHT22;29247;50.944;5.382;2023-01-10T16:04:39;8.80;87.40
43651;DHT22;29247;50.944;5.382;2023-01-10T16:15:28;8.80;87.70
43651;DHT22;29247;50.944;5.382;2023-01-10T16:17:58;8.80;87.80
43651;DHT22;29247;50.944;5.382;2023-01-10T16:20:33;8.80;87.80
43651;DHT22;29247;50.944;5.382;2023-01-10T16:23:00;8.80;88.00
43651;DHT22;29247;50.944;5.382;2023-01-10T16:25:35;8.80;88.00
43651;DHT22;29247;50.944;5.382;2023-01-10T16:28:04;8.80;88.10
43651;DHT22;29247;50.944;5.382;2023-01-10T16:30:35;8.80;88.10
43651;DHT22;29247;50.944;5.382;2023-01-10T16:33:13;8.80;88.10
43651;DHT22;29247;50.944;5.382;2023-01-10T16:35:52;8.80;88.10
43651;DHT22;29247;50.944;5.382;2023-01-10T16:38:18;8.80;88.10
43651;DHT22;29247;50.944;5.382;2023-01-10T16:40:50;8.80;88.20
43651;DHT22;29247;50.944;5.382;2023-01-10T16:43:17;8.80;88.20
43651;DHT22;29247;50.944;5.382;2023-01-10T16:45:46;8.80;88.20
43651;DHT22;29247;50.944;5.382;2023-01-10T16:48:13;8.80;88.20
43651;DHT22;29247;50.944;5.382;2023-01-10T16:50:40;8.90;88.20
43651;DHT22;29247;50.944;5.382;2023-01-10T16:53:09;8.90;88.20
43651;DHT22;29247;50.944;5.382;2023-01-10T16:55:43;8.90;88.20
43651;DHT22;29247;50.944;5.382;2023-01-10T16:58:10;8.90;88.20
43651;DHT22;29247;50.944;5.382;2023-01-10T17:00:38;8.90;88.20
43651;DHT22;29247;50.944;5.382;2023-01-10T17:03:19;8.90;88.20
43651;DHT22;29247;50.944;5.382;2023-01-10T17:05:46;8.90;88.20
43651;DHT22;29247;50.944;5.382;2023-01-10T17:08:16;8.90;88.20
43651;DHT22;29247;50.944;5.382;2023-01-10T17:10:46;8.90;88.20
43651;DHT22;29247;50.944;5.382;2023-01-10T17:13:15;8.90;88.20
43651;DHT22;29247;50.944;5.382;2023-01-10T17:15:41;8.90;88.10
43651;DHT22;29247;50.944;5.382;2023-01-10T17:18:09;8.90;88.10
43651;DHT22;29247;50.944;5.382;2023-01-10T17:20:40;9.00;88.20
43651;DHT22;29247;50.944;5.382;2023-01-10T17:23:05;9.00;88.20
43651;DHT22;29247;50.944;5.382;2023-01-10T17:25:35;9.00;88.20
43651;DHT22;29247;50.944;5.382;2023-01-10T17:28:01;9.00;88.20
43651;DHT22;29247;50.944;5.382;2023-01-10T17:30:29;9.00;89.00
43651;DHT22;29247;50.944;5.382;2023-01-10T17:32:54;9.00;88.30
43651;DHT22;29247;50.944;5.382;2023-01-10T17:35:23;9.00;88.30
43651;DHT22;29247;50.944;5.382;2023-01-10T17:37:55;9.10;88.30
43651;DHT22;29247;50.944;5.382;2023-01-10T17:40:22;9.10;88.30
43651;DHT22;29247;50.944;5.382;2023-01-10T17:42:53;9.10;88.20
43651;DHT22;29247;50.944;5.382;2023-01-10T17:45:22;9.10;88.20
43651;DHT22;29247;50.944;5.382;2023-01-10T17:47:51;9.10;88.20
43651;DHT22;29247;50.944;5.382;2023-01-10T17:50:17;9.10;88.20
43651;DHT22;29247;50.944;5.382;2023-01-10T17:52:45;9.10;88.10
43651;DHT22;29247;50.944;5.382;2023-01-10T17:55:14;9.20;88.10
43651;DHT22;29247;50.944;5.382;2023-01-10T17:57:40;9.20;88.10
43651;DHT22;29247;50.944;5.382;2023-01-10T18:00:06;9.20;88.00
43651;DHT22;29247;50.944;5.382;2023-01-10T18:02:33;9.20;88.00
43651;DHT22;29247;50.944;5.382;2023-01-10T18:05:01;9.20;87.90